createdAt,value
2018-11-23T00:01:20.868Z,3.00
2018-11-23T00:03:52.535Z,3.00
2018-11-23T00:06:22.677Z,3.00
2018-11-23T00:09:15.703Z,2.90
2018-11-23T00:12:27.775Z,2.90
2018-11-23T00:14:58.486Z,2.90
2018-11-23T00:17:27.878Z,2.90
2018-11-23T00:19:57.211Z,2.90
2018-11-23T00:22:26.644Z,2.90
2018-11-23T00:24:57.256Z,2.90
2018-11-23T00:27:29.195Z,2.90
2018-11-23T00:30:03.273Z,2.90
2018-11-23T00:32:33.528Z,2.90
2018-11-23T00:35:03.484Z,2.90
2018-11-23T00:37:33.513Z,2.90
2018-11-23T00:40:03.618Z,2.90
2018-11-23T00:42:32.960Z,2.90
2018-11-23T00:45:02.419Z,2.80
2018-11-23T00:47:33.089Z,2.80
2018-11-23T00:50:02.732Z,2.80
2018-11-23T00:52:32.140Z,2.70
2018-11-23T00:55:02.838Z,2.70
2018-11-23T00:57:32.303Z,2.60
2018-11-23T01:00:01.731Z,2.70
2018-11-23T01:02:32.125Z,2.70
2018-11-23T01:05:02.048Z,2.70
2018-11-23T01:07:31.506Z,2.60
2018-11-23T01:10:01.092Z,2.60
2018-11-23T01:12:30.533Z,2.70
2018-11-23T01:15:00.884Z,2.60
2018-11-23T01:17:30.365Z,2.60
2018-11-23T01:19:59.894Z,2.60
2018-11-23T01:22:29.301Z,2.50
2018-11-23T01:24:59.024Z,2.50
2018-11-23T01:27:38.232Z,2.50
2018-11-23T01:30:13.190Z,2.50
2018-11-23T01:32:43.025Z,2.50
2018-11-23T01:35:15.125Z,2.50
2018-11-23T01:37:46.339Z,2.50
2018-11-23T01:40:18.624Z,2.40
2018-11-23T01:42:48.428Z,2.40
2018-11-23T01:45:18.334Z,2.40
2018-11-23T01:47:47.977Z,2.40
2018-11-23T01:50:21.507Z,2.40
2018-11-23T01:53:08.941Z,2.40
2018-11-23T01:55:38.534Z,2.40
2018-11-23T01:58:08.604Z,2.30
2018-11-23T02:00:38.142Z,2.40
2018-11-23T02:03:07.985Z,2.40
2018-11-23T02:05:37.699Z,2.30
2018-11-23T02:08:09.397Z,2.30
2018-11-23T02:10:39.007Z,2.30
2018-11-23T02:13:10.638Z,2.30
2018-11-23T02:15:42.541Z,2.30
2018-11-23T02:18:11.860Z,2.30
2018-11-23T02:20:42.141Z,2.30
2018-11-23T02:23:11.665Z,2.30
2018-11-23T02:25:43.813Z,2.30
2018-11-23T02:28:13.429Z,2.30
2018-11-23T02:30:43.060Z,2.30
2018-11-23T02:33:12.807Z,2.30
2018-11-23T02:35:42.319Z,2.30
2018-11-23T02:38:13.995Z,2.30
2018-11-23T02:40:43.295Z,2.30
2018-11-23T02:43:12.588Z,2.30
2018-11-23T02:45:42.834Z,2.30
2018-11-23T02:48:12.217Z,2.30
2018-11-23T02:50:42.517Z,2.30
2018-11-23T02:53:11.928Z,2.30
2018-11-23T02:55:41.291Z,2.30
2018-11-23T02:58:10.585Z,2.30
2018-11-23T03:00:40.652Z,2.30
2018-11-23T03:03:10.426Z,2.30
2018-11-23T03:05:40.456Z,2.30
2018-11-23T03:08:09.795Z,2.30
2018-11-23T03:10:39.067Z,2.30
2018-11-23T03:13:08.364Z,2.30
2018-11-23T03:15:49.642Z,2.30
2018-11-23T03:18:26.978Z,2.30
2018-11-23T03:20:56.303Z,2.30
2018-11-23T03:23:25.601Z,2.20
2018-11-23T03:25:55.060Z,2.20
2018-11-23T03:28:24.387Z,2.20
2018-11-23T03:30:53.696Z,2.20
2018-11-23T03:33:22.987Z,2.10
2018-11-23T03:35:52.754Z,2.20
2018-11-23T03:38:22.022Z,2.10
2018-11-23T03:40:51.482Z,2.20
2018-11-23T03:43:20.887Z,2.20
2018-11-23T03:45:50.417Z,2.20
2018-11-23T03:48:20.514Z,2.20
2018-11-23T03:50:49.962Z,2.20
2018-11-23T03:53:19.442Z,2.20
2018-11-23T03:55:48.903Z,2.20
2018-11-23T03:58:18.271Z,2.20
2018-11-23T04:00:47.601Z,2.20
2018-11-23T04:03:17.191Z,2.30
2018-11-23T04:05:46.903Z,2.30
2018-11-23T04:08:16.166Z,2.30
2018-11-23T04:10:46.020Z,2.40
2018-11-23T04:13:15.276Z,2.40
2018-11-23T04:15:44.754Z,2.40
2018-11-23T04:18:15.373Z,2.50
2018-11-23T04:21:01.300Z,2.50
2018-11-23T04:23:32.268Z,2.50
2018-11-23T04:26:02.016Z,2.60
2018-11-23T04:28:31.346Z,2.60
2018-11-23T04:31:00.722Z,2.60
2018-11-23T04:33:30.046Z,2.60
2018-11-23T04:35:59.330Z,2.70
2018-11-23T04:38:28.709Z,2.70
2018-11-23T04:40:57.998Z,2.70
2018-11-23T04:43:27.373Z,2.70
2018-11-23T04:45:56.732Z,2.70
2018-11-23T04:48:26.066Z,2.70
2018-11-23T04:50:55.315Z,2.70
2018-11-23T04:53:26.001Z,2.70
2018-11-23T04:55:55.831Z,2.70
2018-11-23T04:58:25.428Z,2.70
2018-11-23T05:00:56.023Z,2.80
2018-11-23T05:03:26.027Z,2.80
2018-11-23T05:05:55.899Z,2.80
2018-11-23T05:08:25.784Z,2.80
2018-11-23T05:10:56.725Z,2.80
2018-11-23T05:13:26.964Z,2.80
2018-11-23T05:15:56.351Z,2.80
2018-11-23T05:18:26.538Z,2.80
2018-11-23T05:20:56.332Z,2.80
2018-11-23T05:23:26.559Z,2.70
2018-11-23T05:25:55.911Z,2.70
2018-11-23T05:28:26.122Z,2.60
2018-11-23T05:30:55.519Z,2.60
2018-11-23T05:33:24.824Z,2.60
2018-11-23T05:35:54.348Z,2.60
2018-11-23T05:38:23.746Z,2.50
2018-11-23T05:40:53.163Z,2.50
2018-11-23T05:43:23.099Z,2.60
2018-11-23T05:45:53.514Z,2.50
2018-11-23T05:48:26.790Z,2.60
2018-11-23T05:50:52.380Z,2.50
2018-11-23T05:53:21.772Z,2.50
2018-11-23T05:55:52.036Z,2.50
2018-11-23T05:58:23.578Z,2.50
2018-11-23T06:00:53.664Z,2.50
2018-11-23T06:03:23.969Z,2.60
2018-11-23T06:05:53.618Z,2.50
2018-11-23T06:08:22.906Z,2.50
2018-11-23T06:10:52.461Z,2.50
2018-11-23T06:13:21.811Z,2.50
2018-11-23T06:15:51.375Z,2.60
2018-11-23T06:18:20.760Z,2.50
2018-11-23T06:20:50.173Z,2.50
2018-11-23T06:23:19.861Z,2.50
2018-11-23T06:25:53.975Z,2.50
2018-11-23T06:28:23.521Z,2.50
2018-11-23T06:30:53.023Z,2.60
2018-11-23T06:33:40.889Z,2.60
2018-11-23T06:36:10.258Z,2.60
2018-11-23T06:38:40.158Z,2.50
2018-11-23T06:41:10.736Z,2.50
2018-11-23T06:43:39.751Z,2.50
2018-11-23T06:46:10.491Z,2.50
2018-11-23T06:48:40.935Z,2.50
2018-11-23T06:51:10.360Z,2.50
2018-11-23T06:53:46.554Z,2.50
2018-11-23T06:56:16.139Z,2.50
2018-11-23T06:58:45.872Z,2.50
2018-11-23T07:01:16.011Z,2.50
2018-11-23T07:03:45.395Z,2.50
2018-11-23T07:06:15.547Z,2.50
2018-11-23T07:08:45.046Z,2.50
2018-11-23T07:11:14.562Z,2.50
2018-11-23T07:13:51.610Z,2.50
2018-11-23T07:16:22.230Z,2.60
2018-11-23T07:18:51.941Z,2.60
2018-11-23T07:21:21.649Z,2.60
2018-11-23T07:23:53.967Z,2.60
2018-11-23T07:26:24.057Z,2.60
2018-11-23T07:28:54.904Z,2.60
2018-11-23T07:31:26.080Z,2.60
2018-11-23T07:33:55.777Z,2.60
2018-11-23T07:36:26.726Z,2.70
2018-11-23T07:38:56.656Z,2.70
2018-11-23T07:41:38.405Z,2.80
2018-11-23T07:44:14.245Z,2.80
2018-11-23T07:46:44.940Z,2.80
2018-11-23T07:49:16.231Z,2.80
2018-11-23T07:51:45.999Z,2.80
2018-11-23T07:54:16.918Z,2.80
2018-11-23T07:56:47.342Z,2.90
2018-11-23T07:59:16.938Z,2.90
2018-11-23T08:01:47.048Z,2.90
2018-11-23T08:04:17.884Z,2.90
2018-11-23T08:06:47.424Z,3.00
2018-11-23T08:09:18.376Z,3.00
2018-11-23T08:11:50.179Z,3.10
2018-11-23T08:14:22.189Z,3.10
2018-11-23T08:16:51.800Z,3.20
2018-11-23T08:19:23.130Z,3.20
2018-11-23T08:21:54.679Z,3.30
2018-11-23T08:24:24.152Z,3.30
2018-11-23T08:26:54.890Z,3.30
2018-11-23T08:29:24.349Z,3.30
2018-11-23T08:31:54.046Z,3.30
2018-11-23T08:34:23.409Z,3.20
2018-11-23T08:36:53.053Z,3.30
2018-11-23T08:39:25.557Z,3.30
2018-11-23T08:41:56.371Z,3.30
2018-11-23T08:44:26.745Z,3.40
2018-11-23T08:46:56.667Z,3.50
2018-11-23T08:49:27.536Z,3.50
2018-11-23T08:52:01.805Z,3.60
2018-11-23T08:54:38.796Z,3.70
2018-11-23T08:57:08.783Z,3.80
2018-11-23T08:59:43.644Z,3.80
2018-11-23T09:02:13.781Z,3.80
2018-11-23T09:04:43.330Z,3.80
2018-11-23T09:07:12.950Z,4.00
2018-11-23T09:09:42.867Z,3.90
2018-11-23T09:12:14.383Z,4.00
2018-11-23T09:14:44.380Z,4.00
2018-11-23T09:17:13.918Z,4.10
2018-11-23T09:19:43.462Z,4.20
2018-11-23T09:22:13.094Z,4.30
2018-11-23T09:24:42.651Z,4.40
2018-11-23T09:27:12.100Z,4.50
2018-11-23T09:29:41.474Z,4.50
2018-11-23T09:32:11.296Z,4.50
2018-11-23T09:34:41.382Z,4.60
2018-11-23T09:37:11.295Z,4.60
2018-11-23T09:39:40.920Z,4.80
2018-11-23T09:42:11.092Z,4.90
2018-11-23T09:44:41.652Z,4.90
2018-11-23T09:47:15.306Z,4.90
2018-11-23T09:49:52.761Z,5.00
2018-11-23T09:52:22.945Z,5.10
2018-11-23T09:54:57.231Z,5.10
2018-11-23T09:57:26.794Z,5.20
2018-11-23T09:59:57.089Z,5.20
2018-11-23T10:02:26.821Z,5.30
2018-11-23T10:05:01.736Z,5.40
2018-11-23T10:07:31.649Z,5.40
2018-11-23T10:10:04.275Z,5.50
2018-11-23T10:12:35.692Z,5.60
2018-11-23T10:15:37.399Z,5.50
2018-11-23T10:18:13.208Z,5.60
2018-11-23T10:20:47.540Z,5.60
2018-11-23T10:23:16.878Z,5.70
2018-11-23T10:25:47.238Z,5.80
2018-11-23T10:28:17.508Z,5.80
2018-11-23T10:30:50.074Z,5.90
2018-11-23T10:33:22.864Z,6.00
2018-11-23T10:35:53.552Z,6.10
2018-11-23T10:38:25.218Z,6.20
2018-11-23T10:40:56.801Z,6.30
2018-11-23T10:43:26.281Z,6.30
2018-11-23T10:45:56.821Z,6.40
2018-11-23T10:48:27.826Z,6.50
2018-11-23T10:50:59.446Z,6.70
2018-11-23T10:53:31.360Z,6.90
2018-11-23T10:56:03.091Z,7.10
2018-11-23T10:58:36.817Z,7.30
2018-11-23T11:01:13.717Z,7.50
2018-11-23T11:04:01.726Z,7.70
2018-11-23T11:06:37.074Z,7.60
2018-11-23T11:09:15.894Z,7.60
2018-11-23T11:11:48.700Z,7.60
2018-11-23T11:14:19.335Z,7.50
2018-11-23T11:17:02.227Z,7.50
2018-11-23T11:19:33.640Z,7.50
2018-11-23T11:22:05.395Z,7.50
2018-11-23T11:24:43.196Z,7.50
2018-11-23T11:27:14.568Z,7.60
2018-11-23T11:29:46.201Z,7.60
2018-11-23T11:32:18.616Z,7.60
2018-11-23T11:34:48.723Z,7.70
2018-11-23T11:37:18.537Z,7.70
2018-11-23T11:39:49.172Z,7.70
2018-11-23T11:42:19.797Z,7.80
2018-11-23T11:44:50.120Z,7.90
2018-11-23T11:47:20.103Z,7.90
2018-11-23T11:49:50.054Z,8.00
2018-11-23T11:52:19.633Z,8.00
2018-11-23T11:54:49.129Z,8.00
2018-11-23T11:57:19.070Z,8.10
2018-11-23T11:59:50.558Z,8.20
2018-11-23T12:02:22.033Z,8.20
2018-11-23T12:04:52.448Z,8.30
2018-11-23T12:07:34.603Z,8.30
2018-11-23T12:10:04.253Z,8.40
2018-11-23T12:12:33.860Z,8.40
2018-11-23T12:15:04.163Z,8.50
2018-11-23T12:17:34.989Z,8.60
2018-11-23T12:20:06.306Z,8.60
2018-11-23T12:22:36.095Z,8.70
2018-11-23T12:25:06.344Z,8.70
2018-11-23T12:27:36.354Z,8.70
2018-11-23T12:30:10.728Z,8.80
2018-11-23T12:32:40.670Z,8.80
2018-11-23T12:35:11.678Z,8.80
2018-11-23T12:37:48.531Z,8.80
2018-11-23T12:40:20.971Z,8.90
2018-11-23T12:43:05.066Z,8.90
2018-11-23T12:45:43.681Z,9.00
2018-11-23T12:48:13.376Z,9.00
2018-11-23T12:50:46.264Z,9.10
2018-11-23T12:53:16.773Z,9.20
2018-11-23T12:55:46.805Z,9.40
2018-11-23T12:58:19.133Z,9.40
2018-11-23T13:00:49.646Z,9.80
2018-11-23T13:03:19.909Z,10.60
2018-11-23T13:06:05.952Z,11.40
2018-11-23T13:08:38.783Z,12.10
2018-11-23T13:11:09.745Z,12.70
2018-11-23T13:13:39.836Z,13.20
2018-11-23T13:16:10.375Z,13.60
2018-11-23T13:18:40.074Z,13.00
2018-11-23T13:21:10.371Z,12.70
2018-11-23T13:23:40.931Z,12.40
2018-11-23T13:26:10.557Z,12.40
2018-11-23T13:28:45.660Z,12.20
2018-11-23T13:31:16.420Z,12.30
2018-11-23T13:33:46.846Z,12.50
2018-11-23T13:36:16.551Z,12.70
2018-11-23T13:38:50.982Z,13.10
2018-11-23T13:41:21.922Z,13.40
2018-11-23T13:43:52.036Z,13.60
2018-11-23T13:46:26.944Z,13.50
2018-11-23T13:49:00.284Z,13.50
2018-11-23T13:51:31.604Z,13.60
2018-11-23T13:54:01.934Z,13.50
2018-11-23T13:56:32.059Z,13.50
2018-11-23T13:59:02.461Z,13.80
2018-11-23T14:01:38.144Z,14.00
2018-11-23T14:04:08.360Z,14.00
2018-11-23T14:06:38.433Z,13.80
2018-11-23T14:09:14.016Z,14.00
2018-11-23T14:11:44.597Z,13.70
2018-11-23T14:14:14.684Z,13.20
2018-11-23T14:16:46.741Z,13.10
2018-11-23T14:19:16.494Z,12.90
2018-11-23T14:21:48.312Z,12.50
2018-11-23T14:24:20.794Z,12.00
2018-11-23T14:26:51.792Z,11.60
2018-11-23T14:29:24.366Z,11.30
2018-11-23T14:32:05.795Z,11.00
2018-11-23T14:34:52.403Z,10.90
2018-11-23T14:37:31.911Z,10.70
2018-11-23T14:40:10.557Z,10.70
2018-11-23T14:42:41.482Z,10.60
2018-11-23T14:45:14.759Z,10.60
2018-11-23T14:47:58.180Z,10.70
2018-11-23T14:50:42.794Z,10.60
2018-11-23T14:53:14.048Z,10.50
2018-11-23T14:55:43.762Z,10.30
2018-11-23T14:58:13.454Z,10.20
2018-11-23T15:00:45.087Z,10.20
2018-11-23T15:03:22.246Z,10.10
2018-11-23T15:05:58.533Z,10.00
2018-11-23T15:08:29.423Z,10.00
2018-11-23T15:11:00.269Z,9.90
2018-11-23T15:13:33.874Z,9.90
2018-11-23T15:16:05.320Z,9.90
2018-11-23T15:18:37.287Z,9.80
2018-11-23T15:21:07.666Z,9.70
2018-11-23T15:23:38.350Z,9.70
2018-11-23T15:26:21.377Z,9.60
2018-11-23T15:29:01.337Z,9.60
2018-11-23T15:31:40.181Z,9.60
2018-11-23T15:34:18.865Z,9.60
2018-11-23T15:36:49.738Z,9.70
2018-11-23T15:39:20.888Z,9.70
2018-11-23T15:41:58.112Z,9.70
2018-11-23T15:44:30.579Z,9.70
2018-11-23T15:47:00.381Z,9.70
2018-11-23T15:49:29.822Z,9.80
2018-11-23T15:52:01.876Z,9.80
2018-11-23T15:54:34.317Z,9.80
2018-11-23T15:57:12.131Z,9.80
2018-11-23T15:59:43.421Z,9.70
2018-11-23T16:02:13.652Z,9.70
2018-11-23T16:04:45.943Z,9.70
2018-11-23T16:07:18.174Z,9.60
2018-11-23T16:09:50.433Z,9.60
2018-11-23T16:12:20.563Z,9.60
2018-11-23T16:14:51.135Z,9.60
2018-11-23T16:17:21.328Z,9.50
2018-11-23T16:19:50.934Z,9.50
2018-11-23T16:22:21.407Z,9.40
2018-11-23T16:24:52.190Z,9.40
2018-11-23T16:27:23.388Z,9.40
2018-11-23T16:29:55.465Z,9.30
2018-11-23T16:32:26.054Z,9.40
2018-11-23T16:34:56.724Z,9.30
2018-11-23T16:37:27.104Z,9.20
2018-11-23T16:39:56.813Z,9.20
2018-11-23T16:42:26.821Z,9.20
2018-11-23T16:45:02.128Z,9.10
2018-11-23T16:47:32.833Z,9.20
2018-11-23T16:50:04.312Z,9.10
2018-11-23T16:52:36.272Z,9.10
2018-11-23T16:55:09.058Z,9.00
2018-11-23T16:57:43.716Z,9.00
2018-11-23T17:00:20.274Z,9.00
2018-11-23T17:02:50.993Z,8.90
2018-11-23T17:05:31.339Z,9.00
2018-11-23T17:08:01.643Z,8.90
2018-11-23T17:10:32.107Z,9.00
2018-11-23T17:13:03.542Z,9.00
2018-11-23T17:15:33.906Z,9.00
2018-11-23T17:18:03.919Z,9.00
2018-11-23T17:20:35.588Z,9.00
2018-11-23T17:23:07.732Z,9.00
2018-11-23T17:25:38.068Z,9.00
2018-11-23T17:28:10.152Z,8.90
2018-11-23T17:30:46.583Z,8.90
2018-11-23T17:33:29.814Z,8.80
2018-11-23T17:36:27.045Z,8.80
2018-11-23T17:39:09.924Z,8.60
2018-11-23T17:41:55.263Z,8.70
2018-11-23T17:46:03.776Z,8.80
2018-11-23T17:48:36.660Z,8.80
2018-11-23T17:51:33.956Z,8.80
2018-11-23T17:54:19.087Z,8.70
2018-11-23T17:56:51.384Z,8.60
2018-11-23T17:59:21.415Z,8.60
2018-11-23T18:01:55.818Z,8.60
2018-11-23T18:04:29.812Z,8.50
2018-11-23T18:07:03.693Z,8.40
2018-11-23T18:09:44.420Z,8.30
2018-11-23T18:12:26.427Z,8.30
2018-11-23T18:14:56.360Z,8.40
2018-11-23T18:17:38.538Z,8.40
2018-11-23T18:20:29.861Z,8.30
2018-11-23T18:23:02.893Z,8.20
2018-11-23T18:25:37.468Z,8.20
2018-11-23T18:28:09.182Z,8.20
2018-11-23T18:30:41.002Z,8.20
2018-11-23T18:33:17.899Z,8.20
2018-11-23T18:36:04.953Z,8.10
2018-11-23T18:38:39.020Z,8.10
2018-11-23T18:41:10.183Z,8.20
2018-11-23T18:43:40.399Z,8.10
2018-11-23T18:46:09.996Z,8.10
2018-11-23T18:48:40.624Z,8.00
2018-11-23T18:51:11.241Z,8.00
2018-11-23T18:53:48.469Z,8.10
2018-11-23T18:56:26.857Z,8.10
2018-11-23T18:58:59.296Z,8.10
2018-11-23T19:01:33.074Z,8.10
2018-11-23T19:04:07.412Z,8.00
2018-11-23T19:06:45.418Z,8.10
2018-11-23T19:09:36.553Z,8.00
2018-11-23T19:12:24.575Z,8.00
2018-11-23T19:15:04.409Z,7.80
2018-11-23T19:17:40.555Z,7.70
2018-11-23T19:20:28.741Z,7.70
2018-11-23T19:23:14.897Z,7.60
2018-11-23T19:25:47.125Z,7.50
2018-11-23T19:28:18.154Z,7.60
2018-11-23T19:30:50.521Z,7.60
2018-11-23T19:33:21.068Z,7.50
2018-11-23T19:35:50.694Z,7.50
2018-11-23T19:38:23.476Z,7.40
2018-11-23T19:41:10.934Z,7.30
2018-11-23T19:43:52.115Z,7.30
2018-11-23T19:46:38.186Z,7.30
2018-11-23T19:49:32.408Z,7.20
2018-11-23T19:52:17.030Z,7.10
2018-11-23T19:54:47.692Z,7.00
2018-11-23T19:57:19.144Z,7.00
2018-11-23T20:00:00.689Z,7.00
2018-11-23T20:02:44.170Z,7.00
2018-11-23T20:05:23.841Z,7.00
2018-11-23T20:08:14.152Z,6.90
2018-11-23T20:11:23.361Z,6.90
2018-11-23T20:13:57.039Z,6.80
2018-11-23T20:16:44.468Z,6.80
2018-11-23T20:19:43.869Z,6.80
2018-11-23T20:22:23.216Z,6.70
2018-11-23T20:25:03.239Z,6.70
2018-11-23T20:27:46.623Z,6.70
2018-11-23T20:33:06.384Z,6.60
2018-11-23T20:35:39.381Z,6.50
2018-11-23T20:38:20.880Z,6.50
2018-11-23T20:41:03.980Z,6.60
2018-11-23T20:46:18.514Z,6.50
2018-11-23T20:48:55.712Z,6.40
2018-11-23T20:52:20.113Z,6.40
2018-11-23T20:54:51.827Z,6.40
2018-11-23T20:57:43.514Z,6.40
2018-11-23T21:05:19.930Z,6.50
2018-11-23T21:08:08.260Z,6.50
2018-11-23T21:10:50.395Z,6.50
2018-11-23T21:13:25.770Z,6.50
2018-11-23T21:15:58.210Z,6.60
2018-11-23T21:18:29.506Z,6.60
2018-11-23T21:20:59.567Z,6.50
2018-11-23T21:23:36.893Z,6.50
2018-11-23T21:26:22.472Z,6.30
2018-11-23T21:28:55.845Z,6.30
2018-11-23T21:31:27.630Z,6.30
2018-11-23T21:34:39.016Z,6.30
2018-11-23T21:41:14.492Z,6.20
2018-11-23T21:43:56.227Z,6.10
2018-11-23T21:46:29.856Z,6.10
2018-11-23T21:49:15.083Z,6.20
2018-11-23T21:51:54.226Z,6.20
2018-11-23T21:54:29.752Z,6.10
2018-11-23T21:57:03.784Z,6.20
2018-11-23T21:59:34.026Z,6.20
2018-11-23T22:02:07.192Z,6.20
2018-11-23T22:04:35.641Z,6.10
2018-11-23T22:07:13.707Z,6.20
2018-11-23T22:09:54.623Z,6.20
2018-11-23T22:12:34.178Z,6.30
2018-11-23T22:15:11.795Z,6.30
2018-11-23T22:20:57.083Z,6.20
2018-11-23T22:31:16.662Z,6.10
2018-11-23T22:40:36.695Z,6.10
2018-11-23T22:43:20.651Z,6.20
2018-11-23T22:45:57.112Z,6.20
2018-11-23T22:48:28.136Z,6.30
2018-11-23T22:51:13.386Z,6.30
2018-11-23T22:54:07.432Z,6.30
2018-11-23T22:56:46.474Z,6.20
2018-11-23T22:59:36.795Z,6.00
2018-11-23T23:02:34.674Z,6.00
2018-11-23T23:05:13.533Z,5.90
2018-11-23T23:08:05.747Z,5.90
2018-11-23T23:13:19.586Z,5.80
2018-11-23T23:15:54.759Z,5.70
2018-11-23T23:18:30.290Z,5.50
2018-11-23T23:21:00.544Z,5.40
2018-11-23T23:23:31.447Z,5.30
2018-11-23T23:26:01.448Z,5.30
2018-11-23T23:28:38.480Z,5.20
2018-11-23T23:31:15.191Z,5.10
2018-11-23T23:34:06.457Z,5.10
2018-11-23T23:37:09.102Z,5.10
2018-11-23T23:39:41.682Z,5.10
2018-11-23T23:42:11.134Z,5.00
2018-11-23T23:44:42.737Z,5.00
2018-11-23T23:47:12.759Z,5.00
2018-11-23T23:49:43.282Z,5.00
2018-11-23T23:52:14.585Z,5.10
2018-11-23T23:54:48.573Z,5.00
2018-11-23T23:57:20.936Z,5.00
2018-11-23T23:59:50.741Z,5.00
